createdAt,value
2023-02-02T00:04:55.833Z,1.40
2023-02-02T00:09:58.047Z,1.08
2023-02-02T00:15:00.153Z,0.73
2023-02-02T00:20:02.264Z,1.15
2023-02-02T00:25:05.944Z,1.17
2023-02-02T00:30:09.022Z,1.08
2023-02-02T00:35:11.167Z,0.85
2023-02-02T00:40:13.505Z,0.97
2023-02-02T00:45:18.671Z,0.98
2023-02-02T00:50:21.357Z,0.90
2023-02-02T00:55:24.159Z,0.90
2023-02-02T01:00:27.564Z,0.90
2023-02-02T01:05:30.634Z,0.67
2023-02-02T01:10:34.132Z,1.00
2023-02-02T01:15:37.278Z,0.90
2023-02-02T01:20:39.350Z,0.95
2023-02-02T01:25:41.453Z,1.10
2023-02-02T01:30:43.537Z,0.90
2023-02-02T01:35:50.933Z,0.70
2023-02-02T01:40:56.028Z,0.47
2023-02-02T01:45:59.249Z,0.82
2023-02-02T01:51:06.935Z,0.30
2023-02-02T01:56:12.107Z,0.40
2023-02-02T02:01:15.071Z,0.40
2023-02-02T02:06:19.044Z,0.40
2023-02-02T02:11:22.634Z,0.30
2023-02-02T02:16:37.142Z,0.30
2023-02-02T02:22:24.781Z,0.30
2023-02-02T02:27:45.204Z,0.50
2023-02-02T02:32:52.836Z,0.30
2023-02-02T02:38:06.124Z,0.40
2023-02-02T02:43:18.906Z,0.40
2023-02-02T02:48:21.424Z,0.50
2023-02-02T02:53:24.217Z,0.75
2023-02-02T02:58:53.640Z,0.40
2023-02-02T03:04:04.649Z,0.50
2023-02-02T03:09:11.841Z,0.62
2023-02-02T03:14:13.944Z,0.47
2023-02-02T03:19:16.086Z,0.73
2023-02-02T03:24:18.177Z,0.80
2023-02-02T03:29:20.381Z,0.60
2023-02-02T03:34:22.566Z,0.70
2023-02-02T03:39:24.626Z,0.90
2023-02-02T03:44:26.881Z,1.00
2023-02-02T03:49:29.005Z,0.70
2023-02-02T03:54:31.554Z,1.05
2023-02-02T03:59:33.700Z,0.60
2023-02-02T04:04:35.870Z,0.63
2023-02-02T04:09:37.945Z,0.73
2023-02-02T04:14:40.062Z,0.67
2023-02-02T04:19:42.327Z,0.32
2023-02-02T04:24:44.424Z,0.57
2023-02-02T04:29:46.663Z,0.50
2023-02-02T04:34:48.841Z,0.52
2023-02-02T04:39:50.974Z,0.30
2023-02-02T04:44:53.111Z,0.52
2023-02-02T04:49:55.209Z,0.32
2023-02-02T04:54:57.336Z,0.40
2023-02-02T04:59:59.424Z,0.57
2023-02-02T05:05:01.546Z,0.60
2023-02-02T05:10:07.928Z,0.52
2023-02-02T05:15:10.677Z,1.00
2023-02-02T05:20:12.986Z,0.70
2023-02-02T05:25:15.181Z,0.80
2023-02-02T05:30:17.717Z,0.60
2023-02-02T05:35:19.858Z,0.70
2023-02-02T05:40:21.986Z,0.73
2023-02-02T05:45:24.527Z,0.87
2023-02-02T05:50:26.799Z,0.90
2023-02-02T05:55:28.877Z,1.07
2023-02-02T06:00:30.997Z,0.88
2023-02-02T06:05:33.147Z,0.70
2023-02-02T06:10:36.252Z,0.80
2023-02-02T06:15:38.569Z,0.80
2023-02-02T06:20:40.777Z,1.07
2023-02-02T06:25:42.889Z,0.90
2023-02-02T06:30:45.598Z,1.05
2023-02-02T06:35:47.841Z,0.70
2023-02-02T06:40:50.066Z,0.80
2023-02-02T06:45:52.358Z,0.60
2023-02-02T06:50:57.448Z,0.70
2023-02-02T06:56:04.399Z,0.57
2023-02-02T07:01:09.578Z,0.60
2023-02-02T07:06:20.651Z,0.98
2023-02-02T07:11:23.288Z,0.43
2023-02-02T07:16:25.723Z,0.70
2023-02-02T07:21:36.326Z,0.70
2023-02-02T07:26:39.208Z,0.80
2023-02-02T07:31:42.027Z,1.35
2023-02-02T07:36:44.348Z,0.93
2023-02-02T07:41:46.443Z,0.70
2023-02-02T07:46:48.716Z,0.90
2023-02-02T07:51:50.901Z,0.90
2023-02-02T07:56:53.314Z,0.70
2023-02-02T08:01:55.600Z,1.00
2023-02-02T08:06:57.797Z,1.05
2023-02-02T08:12:02.436Z,0.80
2023-02-02T08:17:04.646Z,0.97
2023-02-02T08:22:06.944Z,0.93
2023-02-02T08:27:10.030Z,0.70
2023-02-02T08:32:12.500Z,0.80
2023-02-02T08:37:14.798Z,0.80
2023-02-02T08:42:16.990Z,0.67
2023-02-02T08:47:19.170Z,0.80
2023-02-02T08:52:21.471Z,0.60
2023-02-02T08:57:23.551Z,0.45
2023-02-02T09:02:25.881Z,0.52
2023-02-02T09:07:27.982Z,0.50
2023-02-02T09:12:31.309Z,0.70
2023-02-02T09:17:33.411Z,0.60
2023-02-02T09:22:35.521Z,0.45
2023-02-02T09:27:41.060Z,0.88
2023-02-02T09:32:43.371Z,0.87
2023-02-02T09:37:45.597Z,0.70
2023-02-02T09:43:28.683Z,0.80
2023-02-02T09:48:58.410Z,0.95
2023-02-02T09:54:10.180Z,0.80
2023-02-02T09:59:22.839Z,0.80
2023-02-02T10:04:39.820Z,0.68
2023-02-02T10:10:04.159Z,0.60
2023-02-02T10:15:23.055Z,0.60
2023-02-02T10:20:46.509Z,0.80
2023-02-02T10:26:20.138Z,0.80
2023-02-02T10:31:43.060Z,0.80
2023-02-02T10:37:00.443Z,0.70
2023-02-02T10:42:23.779Z,0.65
2023-02-02T10:47:35.692Z,0.80
2023-02-02T10:52:39.933Z,1.27
2023-02-02T10:58:23.007Z,1.30
2023-02-02T11:03:28.592Z,1.40
2023-02-02T11:08:38.964Z,0.80
2023-02-02T11:13:47.945Z,0.90
2023-02-02T11:18:50.504Z,1.10
2023-02-02T11:24:30.373Z,1.30
2023-02-02T11:29:38.828Z,1.30
2023-02-02T11:34:41.020Z,1.20
2023-02-02T11:39:44.549Z,1.60
2023-02-02T11:44:53.342Z,1.40
2023-02-02T11:49:58.712Z,1.05
2023-02-02T11:55:14.709Z,1.10
2023-02-02T12:00:19.525Z,0.90
2023-02-02T12:05:21.598Z,0.88
2023-02-02T12:10:42.108Z,0.80
2023-02-02T12:15:51.347Z,0.90
2023-02-02T12:21:26.918Z,1.10
2023-02-02T12:26:32.005Z,1.37
2023-02-02T12:31:37.081Z,0.82
2023-02-02T12:37:04.609Z,0.90
2023-02-02T12:42:35.106Z,1.02
2023-02-02T12:47:55.775Z,1.30
2023-02-02T12:53:22.722Z,0.70
2023-02-02T12:58:37.287Z,0.70
2023-02-02T13:03:58.114Z,0.67
2023-02-02T13:09:19.704Z,1.05
2023-02-02T13:14:34.092Z,0.90
2023-02-02T13:19:41.455Z,0.70
2023-02-02T13:24:48.041Z,0.90
2023-02-02T13:29:56.867Z,1.00
2023-02-02T13:35:21.653Z,1.20
2023-02-02T13:40:32.915Z,1.23
2023-02-02T13:45:53.912Z,1.08
2023-02-02T13:51:26.712Z,1.17
2023-02-02T13:56:31.857Z,1.00
2023-02-02T14:01:35.967Z,1.08
2023-02-02T14:07:00.230Z,0.93
2023-02-02T14:12:07.369Z,1.20
2023-02-02T14:17:20.369Z,1.00
2023-02-02T14:22:44.695Z,1.03
2023-02-02T14:27:59.936Z,1.10
2023-02-02T14:33:20.618Z,1.17
2023-02-02T14:38:44.656Z,1.00
2023-02-02T14:43:53.995Z,0.80
2023-02-02T14:48:57.912Z,1.00
2023-02-02T14:54:03.669Z,0.90
2023-02-02T14:59:07.694Z,1.30
2023-02-02T15:04:22.641Z,1.00
2023-02-02T15:09:27.992Z,1.30
2023-02-02T15:14:58.373Z,0.90
2023-02-02T15:20:09.375Z,1.05
2023-02-02T15:25:26.701Z,1.20
2023-02-02T15:30:34.444Z,1.20
2023-02-02T15:35:38.297Z,1.23
2023-02-02T15:40:41.072Z,1.33
2023-02-02T15:45:50.044Z,1.40
2023-02-02T15:50:56.659Z,1.17
2023-02-02T15:55:59.189Z,0.90
2023-02-02T16:01:03.197Z,0.95
2023-02-02T16:06:07.829Z,1.33
2023-02-02T16:11:13.332Z,1.27
2023-02-02T16:16:25.298Z,1.30
2023-02-02T16:21:29.296Z,1.02
2023-02-02T16:26:33.403Z,1.15
2023-02-02T16:31:36.087Z,1.00
2023-02-02T16:36:38.302Z,1.60
2023-02-02T16:41:40.545Z,1.47
2023-02-02T16:46:49.130Z,1.40
2023-02-02T16:52:09.934Z,1.05
2023-02-02T16:57:21.821Z,1.40
2023-02-02T17:02:26.700Z,1.50
2023-02-02T17:07:31.253Z,1.70
2023-02-02T17:12:34.784Z,1.42
2023-02-02T17:17:38.646Z,1.50
2023-02-02T17:22:44.444Z,1.10
2023-02-02T17:27:47.149Z,1.58
2023-02-02T17:32:52.704Z,1.67
2023-02-02T17:37:55.364Z,1.75
2023-02-02T17:42:57.636Z,1.60
2023-02-02T17:48:02.879Z,1.90
2023-02-02T17:53:05.496Z,1.65
2023-02-02T17:58:08.887Z,1.80
2023-02-02T18:03:34.239Z,1.70
2023-02-02T18:08:36.605Z,1.50
2023-02-02T18:13:39.158Z,1.77
2023-02-02T18:18:41.586Z,1.58
2023-02-02T18:23:48.013Z,1.90
2023-02-02T18:28:50.880Z,2.12
2023-02-02T18:33:53.863Z,1.73
2023-02-02T18:38:56.427Z,1.80
2023-02-02T18:43:58.543Z,1.90
2023-02-02T18:49:00.954Z,2.10
2023-02-02T18:54:03.316Z,2.28
2023-02-02T18:59:06.981Z,1.33
2023-02-02T19:04:13.351Z,1.80
2023-02-02T19:09:17.311Z,1.70
2023-02-02T19:14:19.610Z,1.60
2023-02-02T19:19:33.284Z,2.10
2023-02-02T19:24:39.967Z,2.20
2023-02-02T19:29:42.156Z,2.37
2023-02-02T19:34:46.934Z,2.60
2023-02-02T19:39:49.549Z,2.13
2023-02-02T19:44:53.283Z,2.03
2023-02-02T19:49:57.033Z,1.95
2023-02-02T19:55:00.561Z,1.93
2023-02-02T20:00:20.579Z,2.10
2023-02-02T20:05:29.612Z,2.23
2023-02-02T20:10:43.586Z,2.05
2023-02-02T20:15:46.344Z,2.35
2023-02-02T20:20:52.584Z,3.23
2023-02-02T20:25:55.076Z,3.08
2023-02-02T20:30:57.221Z,2.20
2023-02-02T20:36:02.308Z,2.22
2023-02-02T20:41:05.881Z,2.40
2023-02-02T20:46:08.048Z,1.77
2023-02-02T20:51:10.635Z,2.12
2023-02-02T20:56:12.889Z,2.83
2023-02-02T21:01:15.184Z,2.72
2023-02-02T21:06:17.405Z,2.28
2023-02-02T21:11:19.963Z,2.80
2023-02-02T21:16:22.493Z,2.60
2023-02-02T21:21:24.700Z,3.27
2023-02-02T21:26:31.930Z,3.25
2023-02-02T21:31:39.692Z,2.92
2023-02-02T21:36:47.019Z,3.37
2023-02-02T21:41:55.082Z,3.53
2023-02-02T21:46:57.406Z,2.73
2023-02-02T21:52:02.593Z,2.83
2023-02-02T21:57:17.196Z,3.28
2023-02-02T22:02:44.966Z,2.90
2023-02-02T22:07:49.272Z,2.70
2023-02-02T22:12:51.371Z,3.33
2023-02-02T22:17:53.526Z,2.50
2023-02-02T22:22:55.616Z,2.15
2023-02-02T22:28:01.451Z,3.13
2023-02-02T22:33:06.082Z,2.55
2023-02-02T22:38:09.365Z,2.77
2023-02-02T22:43:13.418Z,2.70
2023-02-02T22:48:16.637Z,3.10
2023-02-02T22:53:18.854Z,2.40
2023-02-02T22:58:20.922Z,2.60
2023-02-02T23:03:22.998Z,2.60
2023-02-02T23:08:25.269Z,2.45
2023-02-02T23:13:27.328Z,2.85
2023-02-02T23:18:29.424Z,1.90
2023-02-02T23:23:31.508Z,2.08
2023-02-02T23:28:33.778Z,2.63
2023-02-02T23:33:35.910Z,2.25
2023-02-02T23:38:38.005Z,1.73
2023-02-02T23:43:42.577Z,2.37
2023-02-02T23:48:45.402Z,2.50
2023-02-02T23:53:47.510Z,2.37
2023-02-02T23:58:49.670Z,2.53
